Bushehr, Bushehr Airport (OIBB)

NameBushehr Airport
CityBushehr
CountryIran (Islamic Republic of)
ICAOOIBB
IATABUZ
Altitude21 m
CoordinatesGoogle Map
Live Air TrafficLiveATC.net
METAROIBB 180050Z 36006KT 340V060 4000 DU NSC 13/04 Q1019 A3010
2019-01-18 00:50:00 Wind: North (360°) 3.09 m/s - Visibility: 4000 m - Weather: Widespread dust - Temperature: 13 °C - Dew point: 4 °C - Humidity: 54.6% - Pressure: 1019.3 hPa
Statistics

The table below shows the detailed information of all flights to/from Bushehr, Bushehr Airport (OIBB).